createdAt,value
2019-04-03T00:00:35.855Z,95352.27
2019-04-03T00:03:07.205Z,95346.95
2019-04-03T00:05:38.495Z,95347.56
2019-04-03T00:08:10.267Z,95358.14
2019-04-03T00:10:41.625Z,95355.66
2019-04-03T00:13:13.068Z,95348.36
2019-04-03T00:15:44.798Z,95351.09
2019-04-03T00:18:16.842Z,95350.02
2019-04-03T00:20:49.211Z,95351.21
2019-04-03T00:23:22.357Z,95334.55
2019-04-03T00:25:54.251Z,95353.30
2019-04-03T00:28:25.646Z,95337.84
2019-04-03T00:30:57.115Z,95335.74
2019-04-03T00:33:28.509Z,95340.34
2019-04-03T00:36:00.021Z,95332.82
2019-04-03T00:38:31.576Z,95328.30
2019-04-03T00:41:02.983Z,95332.69
2019-04-03T00:43:34.433Z,95327.45
2019-04-03T00:46:06.240Z,95332.38
2019-04-03T00:48:37.638Z,95333.48
2019-04-03T00:51:09.167Z,95332.53
2019-04-03T00:53:40.677Z,95331.11
2019-04-03T00:56:12.161Z,95322.16
2019-04-03T00:58:44.644Z,95328.91
2019-04-03T01:01:16.176Z,95318.19
2019-04-03T01:03:47.622Z,95327.03
2019-04-03T01:06:19.374Z,95322.42
2019-04-03T01:08:50.843Z,95323.98
2019-04-03T01:11:22.451Z,95323.63
2019-04-03T01:13:54.040Z,95326.69
2019-04-03T01:16:25.480Z,95315.88
2019-04-03T01:18:56.942Z,95316.01
2019-04-03T01:21:28.380Z,95310.02
2019-04-03T01:23:59.845Z,95322.50
2019-04-03T01:26:31.507Z,95320.13
2019-04-03T01:29:03.162Z,95324.97
2019-04-03T01:31:34.637Z,95310.72
2019-04-03T01:34:06.064Z,95311.19
2019-04-03T01:36:37.524Z,95313.77
2019-04-03T01:39:09.080Z,95315.53
2019-04-03T01:41:40.632Z,95309.02
2019-04-03T01:44:13.338Z,95293.01
2019-04-03T01:46:44.731Z,95313.20
2019-04-03T01:49:16.016Z,95306.13
2019-04-03T01:51:47.533Z,95300.03
2019-04-03T01:54:19.081Z,95298.75
2019-04-03T01:56:50.530Z,95295.78
2019-04-03T01:59:22.103Z,95294.36
2019-04-03T02:01:53.572Z,95297.30
2019-04-03T02:04:25.038Z,95295.99
2019-04-03T02:06:57.815Z,95301.19
2019-04-03T02:09:29.354Z,95303.41
2019-04-03T02:12:00.986Z,95296.95
2019-04-03T02:14:32.412Z,95296.25
2019-04-03T02:17:03.726Z,95300.83
2019-04-03T02:19:35.038Z,95294.63
2019-04-03T02:22:06.429Z,95295.99
2019-04-03T02:24:38.013Z,95295.44
2019-04-03T02:27:09.521Z,95290.48
2019-04-03T02:29:41.097Z,95287.55
2019-04-03T02:32:12.683Z,95295.73
2019-04-03T02:34:44.486Z,95300.31
2019-04-03T02:37:16.829Z,95294.56
2019-04-03T02:39:49.124Z,95297.50
2019-04-03T02:42:20.696Z,95297.50
2019-04-03T02:44:52.345Z,95297.95
2019-04-03T02:47:24.125Z,95295.06
2019-04-03T02:49:55.829Z,95290.10
2019-04-03T02:52:28.138Z,95289.05
2019-04-03T02:55:00.840Z,95291.95
2019-04-03T02:57:32.200Z,95288.97
2019-04-03T03:00:03.699Z,95284.83
2019-04-03T03:02:35.365Z,95302.77
2019-04-03T03:05:07.212Z,95306.08
2019-04-03T03:07:38.835Z,95304.08
2019-04-03T03:10:10.338Z,95297.27
2019-04-03T03:12:42.501Z,95303.50
2019-04-03T03:15:14.065Z,95312.86
2019-04-03T03:17:46.213Z,95305.58
2019-04-03T03:20:22.238Z,95303.31
2019-04-03T03:22:55.472Z,95298.16
2019-04-03T03:25:27.481Z,95309.42
2019-04-03T03:27:59.450Z,95300.77
2019-04-03T03:30:41.215Z,95306.98
2019-04-03T03:33:24.238Z,95305.37
2019-04-03T03:35:43.632Z,95310.39
2019-04-03T03:38:12.643Z,95302.59
2019-04-03T03:40:47.317Z,95299.01
2019-04-03T03:43:18.738Z,95293.48
2019-04-03T03:45:52.521Z,95295.60
2019-04-03T03:48:25.592Z,95289.94
2019-04-03T03:50:58.598Z,95292.48
2019-04-03T03:53:32.375Z,95289.41
2019-04-03T03:56:04.615Z,95300.85
2019-04-03T03:58:37.781Z,95299.61
2019-04-03T04:01:09.799Z,95306.84
2019-04-03T04:03:42.337Z,95302.77
2019-04-03T04:06:14.828Z,95310.48
2019-04-03T04:08:46.418Z,95315.44
2019-04-03T04:11:18.104Z,95316.81
2019-04-03T04:13:50.428Z,95318.72
2019-04-03T04:16:22.190Z,95323.27
2019-04-03T04:18:57.000Z,95317.70
2019-04-03T04:21:27.349Z,95321.22
2019-04-03T04:23:59.984Z,95326.09
2019-04-03T04:26:32.366Z,95320.37
2019-04-03T04:29:04.060Z,95320.95
2019-04-03T04:31:35.289Z,95323.86
2019-04-03T04:34:06.950Z,95318.50
2019-04-03T04:36:38.301Z,95318.59
2019-04-03T04:39:10.067Z,95320.89
2019-04-03T04:41:41.453Z,95316.81
2019-04-03T04:44:14.832Z,95317.23
2019-04-03T04:46:46.085Z,95309.57
2019-04-03T04:49:17.381Z,95306.55
2019-04-03T04:51:49.280Z,95313.97
2019-04-03T04:54:20.656Z,95314.62
2019-04-03T04:56:52.217Z,95316.61
2019-04-03T04:59:23.802Z,95313.50
2019-04-03T05:01:55.261Z,95319.44
2019-04-03T05:04:26.832Z,95324.98
2019-04-03T05:07:00.147Z,95322.81
2019-04-03T05:09:34.353Z,95318.49
2019-04-03T05:12:04.889Z,95317.44
2019-04-03T05:14:36.703Z,95321.39
2019-04-03T05:17:09.442Z,95317.25
2019-04-03T05:19:41.030Z,95325.99
2019-04-03T05:22:12.605Z,95322.33
2019-04-03T05:24:44.221Z,95327.72
2019-04-03T05:27:15.850Z,95321.86
2019-04-03T05:29:47.445Z,95311.05
2019-04-03T05:32:19.027Z,95321.33
2019-04-03T05:34:50.563Z,95313.20
2019-04-03T05:37:21.989Z,95312.82
2019-04-03T05:39:55.674Z,95315.14
2019-04-03T05:42:28.451Z,95314.96
2019-04-03T05:45:00.071Z,95316.56
2019-04-03T05:47:31.651Z,95312.38
2019-04-03T05:50:03.014Z,95303.98
2019-04-03T05:52:35.129Z,95308.42
2019-04-03T05:55:08.042Z,95297.30
2019-04-03T05:57:40.725Z,95298.92
2019-04-03T06:00:12.244Z,95308.91
2019-04-03T06:02:44.172Z,95303.55
2019-04-03T06:05:18.634Z,95301.48
2019-04-03T06:07:49.757Z,95303.33
2019-04-03T06:10:21.498Z,95303.50
2019-04-03T06:12:52.843Z,95296.13
2019-04-03T06:15:24.405Z,95303.66
2019-04-03T06:17:55.883Z,95298.45
2019-04-03T06:20:27.443Z,95304.04
2019-04-03T06:22:58.827Z,95292.02
2019-04-03T06:25:32.701Z,95296.48
2019-04-03T06:28:03.881Z,95295.04
2019-04-03T06:30:35.416Z,95293.38
2019-04-03T06:33:07.248Z,95289.38
2019-04-03T06:35:38.887Z,95293.91
2019-04-03T06:38:12.402Z,95280.93
2019-04-03T06:40:43.995Z,95284.47
2019-04-03T06:43:17.157Z,95281.23
2019-04-03T06:45:48.820Z,95274.93
2019-04-03T06:48:20.675Z,95276.99
2019-04-03T06:50:52.489Z,95284.27
2019-04-03T06:53:27.295Z,95276.30
2019-04-03T06:55:57.081Z,95287.81
2019-04-03T06:58:37.328Z,95283.46
2019-04-03T07:01:02.055Z,95285.63
2019-04-03T07:03:35.072Z,95280.75
2019-04-03T07:06:06.653Z,95270.13
2019-04-03T07:08:40.932Z,95285.45
2019-04-03T07:11:22.783Z,95285.45
2019-04-03T07:13:44.923Z,95278.11
2019-04-03T07:16:16.700Z,95284.31
2019-04-03T07:18:48.069Z,95284.75
2019-04-03T07:21:22.133Z,95277.95
2019-04-03T07:23:53.010Z,95281.00
2019-04-03T07:26:24.651Z,95290.73
2019-04-03T07:28:56.721Z,95269.15
2019-04-03T07:31:28.509Z,95279.95
2019-04-03T07:34:01.825Z,95289.25
2019-04-03T07:36:33.254Z,95291.30
2019-04-03T07:39:06.607Z,95285.35
2019-04-03T07:41:41.197Z,95287.97
2019-04-03T07:44:11.775Z,95294.49
2019-04-03T07:46:43.649Z,95294.86
2019-04-03T07:49:15.326Z,95290.65
2019-04-03T07:51:47.108Z,95297.43
2019-04-03T07:54:20.162Z,95287.56
2019-04-03T07:56:52.123Z,95293.97
2019-04-03T07:59:24.082Z,95291.12
2019-04-03T08:01:55.526Z,95286.59
2019-04-03T08:04:27.160Z,95289.36
2019-04-03T08:06:59.076Z,95297.65
2019-04-03T08:09:30.645Z,95278.06
2019-04-03T08:12:04.186Z,95280.27
2019-04-03T08:14:35.315Z,95278.20
2019-04-03T08:17:06.591Z,95284.41
2019-04-03T08:19:37.579Z,95282.08
2019-04-03T08:22:09.385Z,95285.59
2019-04-03T08:24:40.820Z,95266.30
2019-04-03T08:27:11.922Z,95278.48
2019-04-03T08:29:42.827Z,95268.98
2019-04-03T08:32:16.246Z,95275.87
2019-04-03T08:34:46.998Z,95273.91
2019-04-03T08:37:28.388Z,95271.31
2019-04-03T08:39:51.085Z,95269.20
2019-04-03T08:42:22.323Z,95268.38
2019-04-03T08:44:53.601Z,95264.61
2019-04-03T08:47:24.811Z,95271.09
2019-04-03T08:49:57.214Z,95255.00
2019-04-03T08:52:29.034Z,95261.63
2019-04-03T08:55:00.558Z,95260.78
2019-04-03T08:57:32.618Z,95265.70
2019-04-03T09:00:04.295Z,95254.25
2019-04-03T09:02:35.683Z,95237.81
2019-04-03T09:05:08.283Z,95247.61
2019-04-03T09:07:39.574Z,95244.09
2019-04-03T09:10:11.106Z,95236.50
2019-04-03T09:12:42.315Z,95233.88
2019-04-03T09:15:13.583Z,95229.93
2019-04-03T09:17:44.907Z,95228.86
2019-04-03T09:20:16.511Z,95227.61
2019-04-03T09:22:48.105Z,95221.69
2019-04-03T09:25:19.363Z,95218.75
2019-04-03T09:27:50.767Z,95213.59
2019-04-03T09:30:23.816Z,95204.08
2019-04-03T09:32:54.712Z,95211.03
2019-04-03T09:35:25.827Z,95202.13
2019-04-03T09:37:57.085Z,95190.22
2019-04-03T09:40:28.234Z,95187.53
2019-04-03T09:42:59.197Z,95182.99
2019-04-03T09:45:30.470Z,95188.05
2019-04-03T09:48:03.215Z,95180.03
2019-04-03T09:50:35.027Z,95177.70
2019-04-03T09:53:06.751Z,95172.27
2019-04-03T09:55:38.293Z,95168.22
2019-04-03T09:58:09.720Z,95166.80
2019-04-03T10:00:41.985Z,95172.02
2019-04-03T10:03:14.086Z,95158.68
2019-04-03T10:05:46.484Z,95155.04
2019-04-03T10:08:17.434Z,95146.00
2019-04-03T10:10:48.471Z,95141.61
2019-04-03T10:13:19.950Z,95141.61
2019-04-03T10:15:51.179Z,95136.34
2019-04-03T10:18:22.622Z,95130.64
2019-04-03T10:20:54.192Z,95121.05
2019-04-03T10:23:28.191Z,95126.80
2019-04-03T10:25:59.089Z,95119.69
2019-04-03T10:28:31.295Z,95124.41
2019-04-03T10:31:03.168Z,95128.73
2019-04-03T10:33:34.866Z,95106.53
2019-04-03T10:36:06.430Z,95112.31
2019-04-03T10:38:37.673Z,95108.92
2019-04-03T10:41:10.983Z,95097.33
2019-04-03T10:43:42.152Z,95096.48
2019-04-03T10:46:13.351Z,95098.61
2019-04-03T10:48:44.764Z,95081.38
2019-04-03T10:51:16.228Z,95076.07
2019-04-03T10:53:48.927Z,95087.73
2019-04-03T10:56:20.494Z,95087.73
2019-04-03T10:58:51.724Z,95080.61
2019-04-03T11:01:23.362Z,95074.63
2019-04-03T11:03:54.656Z,95074.88
2019-04-03T11:06:25.826Z,95061.80
2019-04-03T11:08:57.052Z,95056.72
2019-04-03T11:11:29.660Z,95064.55
2019-04-03T11:14:03.003Z,95053.02
2019-04-03T11:16:34.380Z,95050.66
2019-04-03T11:19:07.265Z,95042.91
2019-04-03T11:21:38.708Z,95053.21
2019-04-03T11:24:10.206Z,95029.15
2019-04-03T11:26:41.338Z,95040.38
2019-04-03T11:29:12.797Z,95035.62
2019-04-03T11:31:44.184Z,95019.16
2019-04-03T11:34:18.320Z,95016.52
2019-04-03T11:37:08.499Z,95019.62
2019-04-03T11:39:41.964Z,95006.36
2019-04-03T11:42:27.169Z,95011.91
2019-04-03T11:45:11.615Z,95004.36
2019-04-03T11:48:26.411Z,95010.84
2019-04-03T11:50:39.448Z,95006.28
2019-04-03T11:56:40.267Z,94984.32
2019-04-03T11:59:40.258Z,94975.95
2019-04-03T12:02:58.788Z,94975.95
2019-04-03T12:06:11.181Z,94988.95
2019-04-03T12:08:45.699Z,94979.02
2019-04-03T12:11:17.696Z,94968.44
2019-04-03T12:13:49.402Z,94955.36
2019-04-03T12:16:24.033Z,94953.39
2019-04-03T12:18:53.878Z,94952.72
2019-04-03T12:21:25.411Z,94959.52
2019-04-03T12:23:58.148Z,94967.36
2019-04-03T12:26:29.896Z,94954.55
2019-04-03T12:29:00.999Z,94954.55
2019-04-03T12:31:32.552Z,94941.34
2019-04-03T12:34:06.423Z,94952.41
2019-04-03T12:36:37.163Z,94952.41
2019-04-03T12:39:16.051Z,94934.52
2019-04-03T12:41:47.172Z,94934.52
2019-04-03T12:44:20.751Z,94939.72
2019-04-03T12:46:51.663Z,94925.51
2019-04-03T12:49:24.224Z,94925.51
2019-04-03T12:51:55.695Z,94927.89
2019-04-03T12:54:27.148Z,94919.38
2019-04-03T12:57:00.293Z,94916.75
2019-04-03T12:59:31.719Z,94916.75
2019-04-03T13:02:03.781Z,94916.19
2019-04-03T13:04:35.016Z,94914.73
2019-04-03T13:07:06.733Z,94912.50
2019-04-03T13:09:38.724Z,94925.45
2019-04-03T13:12:10.721Z,94915.30
2019-04-03T13:14:42.935Z,94903.97
2019-04-03T13:17:14.786Z,94912.05
2019-04-03T13:19:46.675Z,94912.05
2019-04-03T13:22:18.846Z,94897.69
2019-04-03T13:24:49.999Z,94895.61
2019-04-03T13:27:21.372Z,94911.09
2019-04-03T13:29:52.681Z,94910.54
2019-04-03T13:32:24.787Z,94911.66
2019-04-03T13:34:56.203Z,94911.66
2019-04-03T13:37:27.660Z,94897.59
2019-04-03T13:40:00.520Z,94898.84
2019-04-03T13:42:32.281Z,94881.91
2019-04-03T13:45:04.903Z,94881.91
2019-04-03T13:47:35.988Z,94895.63
2019-04-03T13:50:07.803Z,94876.04
2019-04-03T13:52:43.065Z,94877.30
2019-04-03T13:55:12.246Z,94886.81
2019-04-03T13:57:43.859Z,94884.80
2019-04-03T14:00:20.982Z,94890.14
2019-04-03T14:02:48.853Z,94890.14
2019-04-03T14:05:20.296Z,94889.33
2019-04-03T14:07:51.498Z,94883.62
2019-04-03T14:10:24.525Z,94883.62
2019-04-03T14:12:55.791Z,94878.67
2019-04-03T14:15:26.996Z,94878.67
2019-04-03T14:17:59.627Z,94856.25
2019-04-03T14:20:31.151Z,94876.39
2019-04-03T14:23:03.901Z,94852.41
2019-04-03T14:25:38.454Z,94895.57
2019-04-03T14:28:09.697Z,94895.57
2019-04-03T14:30:43.637Z,94874.03
2019-04-03T14:33:14.564Z,94868.92
2019-04-03T14:35:52.324Z,94876.16
2019-04-03T14:38:19.084Z,94876.16
2019-04-03T14:40:50.562Z,94868.61
2019-04-03T14:43:22.384Z,94866.58
2019-04-03T14:45:53.965Z,94877.86
2019-04-03T14:48:26.312Z,94871.47
2019-04-03T14:50:58.692Z,94871.47
2019-04-03T14:53:30.154Z,94875.54
2019-04-03T14:56:02.043Z,94872.14
2019-04-03T14:58:33.119Z,94868.53
2019-04-03T15:01:04.409Z,94868.53
2019-04-03T15:03:35.607Z,94865.95
2019-04-03T15:06:06.947Z,94863.95
2019-04-03T15:08:38.339Z,94864.91
2019-04-03T15:11:10.002Z,94863.13
2019-04-03T15:13:41.295Z,94860.81
2019-04-03T15:16:13.058Z,94862.06
2019-04-03T15:18:44.735Z,94860.49
2019-04-03T15:21:15.839Z,94863.69
2019-04-03T15:23:47.488Z,94860.19
2019-04-03T15:26:21.830Z,94830.17
2019-04-03T15:28:56.829Z,94865.70
2019-04-03T15:31:28.874Z,94871.66
2019-04-03T15:34:00.496Z,94870.05
2019-04-03T15:36:34.917Z,94876.76
2019-04-03T15:39:07.572Z,94876.76
2019-04-03T15:41:39.211Z,94878.14
2019-04-03T15:44:10.543Z,94876.60
2019-04-03T15:46:41.791Z,94884.95
2019-04-03T15:49:13.276Z,94886.30
2019-04-03T15:51:44.726Z,94892.31
2019-04-03T15:54:16.229Z,94906.45
2019-04-03T15:56:47.530Z,94889.41
2019-04-03T15:59:18.639Z,94880.88
2019-04-03T16:01:50.145Z,94887.70
2019-04-03T16:04:21.707Z,94893.59
2019-04-03T16:06:53.331Z,94892.23
2019-04-03T16:09:24.733Z,94888.64
2019-04-03T16:11:56.208Z,94888.14
2019-04-03T16:14:28.545Z,94887.58
2019-04-03T16:17:02.943Z,94883.92
2019-04-03T16:19:35.223Z,94895.26
2019-04-03T16:22:07.005Z,94897.41
2019-04-03T16:24:38.297Z,94895.81
2019-04-03T16:27:09.444Z,94902.59
2019-04-03T16:29:41.328Z,94902.44
2019-04-03T16:32:12.945Z,94892.34
2019-04-03T16:34:44.246Z,94898.50
2019-04-03T16:37:15.680Z,94890.13
2019-04-03T16:39:47.347Z,94892.28
2019-04-03T16:42:19.091Z,94896.20
2019-04-03T16:44:50.722Z,94898.81
2019-04-03T16:47:22.029Z,94896.28
2019-04-03T16:49:54.867Z,94900.41
2019-04-03T16:52:26.669Z,94902.73
2019-04-03T16:54:58.408Z,94907.18
2019-04-03T16:57:29.790Z,94903.25
2019-04-03T17:00:00.960Z,94902.32
2019-04-03T17:02:32.235Z,94906.66
2019-04-03T17:05:03.502Z,94893.44
2019-04-03T17:07:37.447Z,94891.33
2019-04-03T17:10:09.994Z,94901.30
2019-04-03T17:12:41.390Z,94902.80
2019-04-03T17:15:13.034Z,94906.75
2019-04-03T17:17:46.217Z,94908.91
2019-04-03T17:20:20.334Z,94912.16
2019-04-03T17:22:51.467Z,94915.16
2019-04-03T17:25:23.255Z,94916.96
2019-04-03T17:27:57.810Z,94921.26
2019-04-03T17:30:27.558Z,94922.26
2019-04-03T17:33:00.399Z,94927.86
2019-04-03T17:35:31.606Z,94921.17
2019-04-03T17:38:03.161Z,94944.20
2019-04-03T17:40:36.378Z,94925.09
2019-04-03T17:43:07.523Z,94942.42
2019-04-03T17:45:46.506Z,94941.28
2019-04-03T17:48:19.537Z,94952.37
2019-04-03T17:50:51.110Z,94952.53
2019-04-03T17:53:22.265Z,94953.36
2019-04-03T17:55:53.907Z,94960.55
2019-04-03T17:58:25.604Z,94951.23
2019-04-03T18:00:57.074Z,94950.41
2019-04-03T18:03:28.367Z,94957.91
2019-04-03T18:05:59.537Z,94963.14
2019-04-03T18:08:32.593Z,94972.46
2019-04-03T18:11:28.536Z,94975.88
2019-04-03T18:14:01.502Z,94971.77
2019-04-03T18:16:32.920Z,94980.21
2019-04-03T18:19:05.415Z,94977.28
2019-04-03T18:21:37.041Z,94973.30
2019-04-03T18:24:08.632Z,94979.48
2019-04-03T18:26:40.135Z,94978.66
2019-04-03T18:29:11.680Z,94981.20
2019-04-03T18:31:44.703Z,94978.61
2019-04-03T18:34:16.291Z,94977.91
2019-04-03T18:36:48.182Z,94988.55
2019-04-03T18:39:19.700Z,94980.36
2019-04-03T18:41:51.335Z,94990.31
2019-04-03T18:44:26.056Z,94994.88
2019-04-03T18:46:56.474Z,94995.53
2019-04-03T18:49:28.107Z,94993.16
2019-04-03T18:51:59.872Z,94993.19
2019-04-03T18:54:31.456Z,94986.31
2019-04-03T18:57:02.936Z,94998.35
2019-04-03T18:59:34.479Z,94992.55
2019-04-03T19:02:06.226Z,94992.64
2019-04-03T19:04:38.303Z,95001.98
2019-04-03T19:07:09.852Z,94987.48
2019-04-03T19:09:41.297Z,94991.27
2019-04-03T19:12:13.504Z,95007.69
2019-04-03T19:14:44.920Z,95001.41
2019-04-03T19:17:16.590Z,94989.64
2019-04-03T19:19:48.264Z,94994.05
2019-04-03T19:22:19.671Z,94991.47
2019-04-03T19:24:51.496Z,94991.92
2019-04-03T19:27:22.945Z,95001.25
2019-04-03T19:29:54.687Z,94997.91
2019-04-03T19:32:26.121Z,94989.92
2019-04-03T19:34:57.737Z,94992.86
2019-04-03T19:37:29.281Z,94992.05
2019-04-03T19:40:01.555Z,94990.58
2019-04-03T19:42:34.866Z,94992.20
2019-04-03T19:45:07.519Z,94994.77
2019-04-03T19:47:39.243Z,94997.25
2019-04-03T19:50:10.992Z,94992.36
2019-04-03T19:52:42.743Z,94990.38
2019-04-03T19:55:14.341Z,94997.81
2019-04-03T19:57:45.794Z,94999.51
2019-04-03T20:00:17.401Z,94991.73
2019-04-03T20:02:48.931Z,94998.65
2019-04-03T20:05:20.314Z,94999.02
2019-04-03T20:07:51.891Z,94998.65
2019-04-03T20:10:23.322Z,94999.23
2019-04-03T20:12:54.869Z,94995.91
2019-04-03T20:15:26.074Z,95008.77
2019-04-03T20:17:57.478Z,95011.91
2019-04-03T20:20:31.464Z,95011.64
2019-04-03T20:23:02.438Z,95011.64
2019-04-03T20:25:33.968Z,95011.03
2019-04-03T20:28:05.714Z,95002.64
2019-04-03T20:30:37.551Z,95000.78
2019-04-03T20:33:11.425Z,95011.91
2019-04-03T20:35:42.583Z,95008.10
2019-04-03T20:38:14.353Z,95012.05
2019-04-03T20:40:45.930Z,95013.45
2019-04-03T20:43:17.353Z,95018.34
2019-04-03T20:45:49.773Z,95007.77
2019-04-03T20:48:21.895Z,95009.30
2019-04-03T20:50:53.514Z,95011.95
2019-04-03T20:53:25.112Z,95008.83
2019-04-03T20:55:58.135Z,95004.46
2019-04-03T20:58:30.303Z,95012.05
2019-04-03T21:01:06.856Z,95017.41
2019-04-03T21:03:36.091Z,95018.07
2019-04-03T21:06:07.524Z,95022.39
2019-04-03T21:08:39.334Z,95021.31
2019-04-03T21:11:11.790Z,95020.55
2019-04-03T21:13:43.303Z,95016.59
2019-04-03T21:16:16.654Z,95036.03
2019-04-03T21:18:51.150Z,95038.15
2019-04-03T21:21:21.594Z,95022.31
2019-04-03T21:23:52.978Z,95033.91
2019-04-03T21:26:24.396Z,95032.34
2019-04-03T21:28:56.106Z,95034.54
2019-04-03T21:31:27.800Z,95037.05
2019-04-03T21:34:01.619Z,95045.02
2019-04-03T21:36:32.853Z,95041.82
2019-04-03T21:39:06.239Z,95039.70
2019-04-03T21:41:37.817Z,95039.83
2019-04-03T21:44:09.399Z,95044.84
2019-04-03T21:46:41.000Z,95045.89
2019-04-03T21:49:12.427Z,95038.69
2019-04-03T21:51:43.659Z,95039.72
2019-04-03T21:54:14.891Z,95050.68
2019-04-03T21:56:46.182Z,95048.72
2019-04-03T21:59:17.522Z,95058.22
2019-04-03T22:01:49.041Z,95051.80
2019-04-03T22:04:20.940Z,95055.48
2019-04-03T22:06:53.499Z,95060.75
2019-04-03T22:09:24.855Z,95051.80
2019-04-03T22:11:56.180Z,95055.08
2019-04-03T22:14:27.682Z,95050.58
2019-04-03T22:17:00.470Z,95052.88
2019-04-03T22:19:31.921Z,95056.66
2019-04-03T22:22:03.643Z,95060.15
2019-04-03T22:24:37.760Z,95055.84
2019-04-03T22:27:11.309Z,95053.05
2019-04-03T22:29:42.988Z,95056.02
2019-04-03T22:32:14.525Z,95055.50
2019-04-03T22:34:46.323Z,95053.89
2019-04-03T22:37:18.001Z,95064.73
2019-04-03T22:39:50.500Z,95053.14
2019-04-03T22:42:22.146Z,95063.53
2019-04-03T22:44:53.665Z,95058.17
2019-04-03T22:47:25.718Z,95051.20
2019-04-03T22:49:57.403Z,95053.38
2019-04-03T22:52:28.840Z,95065.20
2019-04-03T22:55:00.393Z,95060.02
2019-04-03T22:57:31.794Z,95055.78
2019-04-03T23:00:03.528Z,95058.38
2019-04-03T23:02:36.935Z,95053.92
2019-04-03T23:05:08.467Z,95046.68
2019-04-03T23:07:40.028Z,95048.45
2019-04-03T23:10:11.567Z,95047.76
2019-04-03T23:12:43.106Z,95046.48
2019-04-03T23:15:14.746Z,95046.06
2019-04-03T23:17:46.072Z,95039.91
2019-04-03T23:20:17.784Z,95052.52
2019-04-03T23:22:49.358Z,95056.75
2019-04-03T23:25:20.853Z,95041.19
2019-04-03T23:27:52.566Z,95032.73
2019-04-03T23:30:24.197Z,95044.31
2019-04-03T23:32:55.851Z,95048.32
2019-04-03T23:35:27.334Z,95051.98
2019-04-03T23:37:58.921Z,95049.62
2019-04-03T23:40:30.529Z,95051.84
2019-04-03T23:43:02.076Z,95049.05
2019-04-03T23:45:33.635Z,95047.64
2019-04-03T23:48:05.336Z,95041.95
2019-04-03T23:50:36.986Z,95044.88
2019-04-03T23:53:08.590Z,95046.20
2019-04-03T23:55:40.214Z,95042.92
2019-04-03T23:58:11.634Z,95045.00
